Time;durP1;ratioP1;P1;durP2;ratioP2;P2;SDS_P1;SDS_P2;PMS_P1;PMS_P2;Temp;Humidity;BMP_temperature;BMP_pressure;BME280_temperature;BME280_humidity;BME280_pressure;Samples;Min_cycle;Max_cycle;Signal;HPM_P1;HPM_P2
2022/08/30 00:01:31;;;;;;;13.10;10.35;;;14.90;99.90;;;;;;5039215;28;20025;-77
2022/08/30 00:03:58;;;;;;;11.95;9.80;;;14.90;99.90;;;;;;5045234;28;20036;-77
2022/08/30 00:06:25;;;;;;;16.63;10.32;;;14.80;99.90;;;;;;5049014;28;20032;-77
2022/08/30 00:08:52;;;;;;;13.95;9.82;;;14.80;99.90;;;;;;5044246;28;20037;-77
2022/08/30 00:11:21;;;;;;;13.55;9.95;;;14.70;99.90;;;;;;5048947;28;20025;-77
2022/08/30 00:13:49;;;;;;;23.92;11.25;;;14.70;99.90;;;;;;5038601;28;20037;-78
2022/08/30 00:16:15;;;;;;;15.70;10.15;;;14.80;99.90;;;;;;5037476;28;20029;-77
2022/08/30 00:18:42;;;;;;;13.88;9.43;;;14.70;99.90;;;;;;5038726;28;20042;-77
2022/08/30 00:21:09;;;;;;;12.80;9.77;;;14.70;99.90;;;;;;5031481;28;20083;-77
2022/08/30 00:23:35;;;;;;;13.63;11.13;;;14.70;99.90;;;;;;5041133;28;20033;-77
2022/08/30 00:26:01;;;;;;;12.02;10.27;;;14.70;99.90;;;;;;5051220;28;20020;-77
2022/08/30 00:28:27;;;;;;;12.18;10.07;;;14.70;99.90;;;;;;5051232;28;20394;-77
2022/08/30 00:30:53;;;;;;;13.70;9.75;;;14.60;99.90;;;;;;5051992;28;20037;-77
2022/08/30 00:33:20;;;;;;;12.60;10.23;;;14.60;99.90;;;;;;5045262;28;20501;-77
2022/08/30 00:35:45;;;;;;;14.02;10.88;;;14.60;99.90;;;;;;5051092;28;20489;-77
2022/08/30 00:38:12;;;;;;;12.02;10.68;;;14.60;99.90;;;;;;5050930;28;20036;-77
2022/08/30 00:40:41;;;;;;;14.50;10.98;;;14.60;99.90;;;;;;5051295;28;20027;-77
2022/08/30 00:43:12;;;;;;;13.05;10.82;;;14.50;99.90;;;;;;5050881;28;20029;-77
2022/08/30 00:45:38;;;;;;;13.02;11.13;;;14.50;99.90;;;;;;5047446;28;20049;-77
2022/08/30 00:48:05;;;;;;;11.82;10.63;;;14.50;99.90;;;;;;5036462;28;20033;-77
2022/08/30 00:50:38;;;;;;;12.63;10.70;;;14.50;99.90;;;;;;5050598;28;20045;-77
2022/08/30 00:53:07;;;;;;;14.10;10.48;;;14.50;99.90;;;;;;5035025;28;20121;-78
2022/08/30 00:55:34;;;;;;;16.17;10.57;;;14.40;99.90;;;;;;5047871;28;20103;-77
2022/08/30 00:58:03;;;;;;;18.02;10.63;;;14.40;99.90;;;;;;5050982;28;20068;-77
2022/08/30 01:00:29;;;;;;;16.77;10.23;;;14.40;99.90;;;;;;5044518;28;20029;-77
2022/08/30 01:02:55;;;;;;;12.70;9.88;;;14.40;99.90;;;;;;5038305;28;20029;-77
2022/08/30 01:05:22;;;;;;;14.43;9.63;;;14.40;99.90;;;;;;5050527;28;20032;-77
2022/08/30 01:07:48;;;;;;;14.68;10.20;;;14.30;99.90;;;;;;5050540;28;20033;-77
2022/08/30 01:10:14;;;;;;;13.27;9.57;;;14.30;99.90;;;;;;5035861;28;20102;-77
2022/08/30 01:12:41;;;;;;;12.23;10.32;;;14.30;99.90;;;;;;5032922;28;20052;-77
2022/08/30 01:15:08;;;;;;;12.65;9.93;;;14.30;99.90;;;;;;5033780;28;20044;-77
2022/08/30 01:17:33;;;;;;;11.90;10.45;;;14.30;99.90;;;;;;5048351;28;20025;-77
2022/08/30 01:20:06;;;;;;;12.70;10.55;;;14.20;99.90;;;;;;5036707;28;20351;-77
2022/08/30 01:22:43;;;;;;;14.48;10.70;;;14.20;99.90;;;;;;5045603;28;20505;-77
2022/08/30 01:25:10;;;;;;;13.48;12.07;;;14.20;99.90;;;;;;5046590;28;20126;-77
2022/08/30 01:27:40;;;;;;;16.63;11.25;;;14.20;99.90;;;;;;5041752;28;20029;-77
2022/08/30 01:30:07;;;;;;;14.45;11.63;;;14.20;99.90;;;;;;5045037;28;20040;-77
2022/08/30 01:32:38;;;;;;;13.13;11.18;;;14.20;99.90;;;;;;5048678;28;20037;-77
2022/08/30 01:35:04;;;;;;;13.75;11.05;;;14.20;99.90;;;;;;5049961;28;20075;-78
2022/08/30 01:37:32;;;;;;;14.57;10.70;;;14.20;99.90;;;;;;5049887;28;20025;-77
2022/08/30 01:39:58;;;;;;;12.75;10.35;;;14.20;99.90;;;;;;5043890;28;20024;-77
2022/08/30 01:42:24;;;;;;;14.07;11.07;;;14.20;99.90;;;;;;5035606;28;20032;-77
2022/08/30 01:44:50;;;;;;;12.15;10.50;;;14.10;99.90;;;;;;5040060;28;20033;-77
2022/08/30 01:47:17;;;;;;;13.05;9.43;;;14.10;99.90;;;;;;5046380;28;20043;-77
2022/08/30 01:49:46;;;;;;;11.13;9.93;;;14.10;99.90;;;;;;5049522;28;20029;-77
2022/08/30 01:52:13;;;;;;;14.23;10.65;;;14.10;99.90;;;;;;5050192;28;20031;-77
2022/08/30 01:54:40;;;;;;;13.65;10.02;;;14.10;99.90;;;;;;5037748;28;20025;-77
2022/08/30 01:57:09;;;;;;;10.23;9.20;;;14.10;99.90;;;;;;5049562;28;20068;-77
2022/08/30 01:59:35;;;;;;;14.30;10.15;;;14.10;99.90;;;;;;5035827;28;20025;-77
2022/08/30 02:02:01;;;;;;;15.68;10.27;;;14.00;99.90;;;;;;5050007;28;20541;-77
2022/08/30 02:04:26;;;;;;;16.35;10.80;;;14.00;99.90;;;;;;5048936;28;20058;-77
2022/08/30 02:06:52;;;;;;;14.13;10.25;;;14.00;99.90;;;;;;5039424;28;20017;-77
2022/08/30 02:09:18;;;;;;;13.57;10.02;;;14.00;99.90;;;;;;5035271;28;20029;-77
2022/08/30 02:11:44;;;;;;;11.60;9.88;;;13.90;99.90;;;;;;5048403;28;20044;-77
2022/08/30 02:14:10;;;;;;;12.68;10.70;;;13.90;99.90;;;;;;5049574;28;20032;-77
2022/08/30 02:16:36;;;;;;;13.35;10.07;;;13.90;99.90;;;;;;5043403;28;20052;-77
2022/08/30 02:19:02;;;;;;;13.25;11.15;;;13.90;99.90;;;;;;5030527;28;20045;-77
2022/08/30 02:21:27;;;;;;;12.98;11.32;;;13.90;99.90;;;;;;5046130;28;20032;-77
2022/08/30 02:23:54;;;;;;;12.35;10.75;;;13.90;99.90;;;;;;5045711;28;20021;-77
2022/08/30 02:26:20;;;;;;;16.20;10.88;;;13.80;99.90;;;;;;5048403;28;20021;-77
2022/08/30 02:28:46;;;;;;;17.85;10.43;;;13.80;99.90;;;;;;5035995;28;20044;-77
2022/08/30 02:31:12;;;;;;;13.00;10.50;;;13.80;99.90;;;;;;5048868;28;20029;-77
2022/08/30 02:33:38;;;;;;;11.93;10.57;;;13.80;99.90;;;;;;5043578;28;20683;-77
2022/08/30 02:36:08;;;;;;;11.98;10.50;;;13.80;99.90;;;;;;5039028;28;20370;-77
2022/08/30 02:38:34;;;;;;;14.50;10.20;;;13.80;99.90;;;;;;5041290;28;20079;-77
2022/08/30 02:41:00;;;;;;;12.50;10.65;;;13.80;99.90;;;;;;5048973;28;20029;-78
2022/08/30 02:43:26;;;;;;;14.45;10.52;;;13.80;99.90;;;;;;5048531;28;20078;-77
2022/08/30 02:45:52;;;;;;;13.15;10.82;;;13.80;99.90;;;;;;5048789;28;20036;-77
2022/08/30 02:48:18;;;;;;;12.80;10.05;;;13.70;99.90;;;;;;5034848;28;20021;-77
2022/08/30 02:50:46;;;;;;;11.68;10.10;;;13.70;99.90;;;;;;5042429;28;20044;-77
2022/08/30 02:53:12;;;;;;;15.77;10.60;;;13.70;99.90;;;;;;5048285;28;20024;-77
2022/08/30 02:55:38;;;;;;;12.73;10.15;;;13.70;99.90;;;;;;5029856;28;20509;-77
2022/08/30 02:58:04;;;;;;;14.93;10.05;;;13.70;99.90;;;;;;5032857;28;20478;-77
2022/08/30 03:00:29;;;;;;;11.95;9.85;;;13.60;99.90;;;;;;5044239;28;20024;-77
2022/08/30 03:02:56;;;;;;;13.45;10.38;;;13.60;99.90;;;;;;5047995;28;20095;-77
2022/08/30 03:05:23;;;;;;;12.77;10.15;;;13.60;99.90;;;;;;5048109;28;20024;-77
2022/08/30 03:07:48;;;;;;;13.48;10.27;;;13.60;99.90;;;;;;5048149;28;20128;-77
2022/08/30 03:10:15;;;;;;;13.48;10.55;;;13.60;99.90;;;;;;5048455;28;20774;-77
2022/08/30 03:12:41;;;;;;;11.52;9.43;;;13.60;99.90;;;;;;5032160;28;20138;-77
2022/08/30 03:15:09;;;;;;;12.27;10.40;;;13.60;99.90;;;;;;5048086;28;20110;-77
2022/08/30 03:17:34;;;;;;;14.60;10.45;;;13.60;99.90;;;;;;5038618;28;20471;-77
2022/08/30 03:20:01;;;;;;;13.07;10.57;;;13.60;99.90;;;;;;5033998;28;20048;-77
2022/08/30 03:22:27;;;;;;;13.32;10.10;;;13.60;99.90;;;;;;5047931;28;20037;-77
2022/08/30 03:24:58;;;;;;;11.65;10.23;;;13.60;99.90;;;;;;5048111;28;20025;-77
2022/08/30 03:27:24;;;;;;;13.00;9.65;;;13.60;99.90;;;;;;5048141;28;20095;-77
2022/08/30 03:29:50;;;;;;;13.23;9.88;;;13.60;99.90;;;;;;5047558;28;20025;-77
2022/08/30 03:32:15;;;;;;;12.60;9.70;;;13.60;99.90;;;;;;5044030;28;20032;-77
2022/08/30 03:34:41;;;;;;;13.32;9.88;;;13.50;99.90;;;;;;5043206;28;20095;-77
2022/08/30 03:37:06;;;;;;;11.60;10.40;;;13.50;99.90;;;;;;5033539;28;20029;-77
2022/08/30 03:39:32;;;;;;;13.05;9.93;;;13.50;99.90;;;;;;5047644;28;20440;-77
2022/08/30 03:41:58;;;;;;;11.93;10.60;;;13.50;99.90;;;;;;5033837;28;20025;-77
2022/08/30 03:44:23;;;;;;;14.85;10.63;;;13.50;99.90;;;;;;5044614;28;20040;-77
2022/08/30 03:46:50;;;;;;;12.85;10.27;;;13.50;99.90;;;;;;5047578;28;20090;-77
2022/08/30 03:49:16;;;;;;;14.05;10.00;;;13.50;99.90;;;;;;5039568;28;20021;-77
2022/08/30 03:51:42;;;;;;;12.75;10.40;;;13.40;99.90;;;;;;5052133;28;20078;-77
2022/08/30 03:54:08;;;;;;;12.60;10.63;;;13.40;99.90;;;;;;5052112;28;20032;-77
2022/08/30 03:56:34;;;;;;;10.68;9.55;;;13.40;99.90;;;;;;5051729;28;20053;-77
2022/08/30 03:59:00;;;;;;;11.60;9.70;;;13.40;99.90;;;;;;5044163;28;20446;-77
2022/08/30 04:01:26;;;;;;;12.50;9.63;;;13.40;99.90;;;;;;5051727;28;20027;-77
2022/08/30 04:03:51;;;;;;;10.75;9.65;;;13.40;99.90;;;;;;5037494;28;20462;-77
2022/08/30 04:06:17;;;;;;;17.30;10.27;;;13.40;99.90;;;;;;5035657;28;20083;-77
2022/08/30 04:08:44;;;;;;;15.75;9.88;;;13.40;99.90;;;;;;5038388;28;20033;-77
2022/08/30 04:11:10;;;;;;;17.23;10.20;;;13.30;99.90;;;;;;5038483;28;20017;-77
2022/08/30 04:13:35;;;;;;;13.68;10.35;;;13.30;99.90;;;;;;5031311;28;20064;-77
2022/08/30 04:16:01;;;;;;;11.95;10.60;;;13.30;99.90;;;;;;5033118;28;20056;-77
2022/08/30 04:18:27;;;;;;;15.68;10.85;;;13.30;99.90;;;;;;5031766;28;20029;-76
2022/08/30 04:20:52;;;;;;;14.70;10.32;;;13.40;99.90;;;;;;5044412;28;20037;-77
2022/08/30 04:23:18;;;;;;;16.42;10.30;;;13.30;99.90;;;;;;5051882;28;20028;-77
2022/08/30 04:25:44;;;;;;;12.90;9.15;;;13.30;99.90;;;;;;5048116;28;20119;-77
2022/08/30 04:28:10;;;;;;;15.25;10.45;;;13.30;99.90;;;;;;5037171;28;20117;-77
2022/08/30 04:30:41;;;;;;;12.70;9.85;;;13.30;99.90;;;;;;5051366;28;20029;-77
2022/08/30 04:33:07;;;;;;;15.05;10.88;;;13.30;99.90;;;;;;5036905;28;20083;-77
2022/08/30 04:35:32;;;;;;;17.10;10.82;;;13.30;99.90;;;;;;5044409;28;20032;-77
2022/08/30 04:37:58;;;;;;;11.77;10.15;;;13.30;99.90;;;;;;5034932;28;20104;-77
2022/08/30 04:40:24;;;;;;;14.20;9.43;;;13.30;99.90;;;;;;5035691;28;20055;-77
2022/08/30 04:42:52;;;;;;;13.07;9.88;;;13.30;99.90;;;;;;5036392;28;20076;-77
2022/08/30 04:45:19;;;;;;;13.10;9.23;;;13.30;99.90;;;;;;5044446;28;20063;-77
2022/08/30 04:47:45;;;;;;;11.75;9.15;;;13.30;99.90;;;;;;5030210;28;20041;-77
2022/08/30 04:50:14;;;;;;;15.77;9.63;;;13.30;99.90;;;;;;5033957;28;20044;-77
2022/08/30 04:52:39;;;;;;;13.88;8.65;;;13.30;99.90;;;;;;5039690;28;20112;-77
2022/08/30 04:55:07;;;;;;;13.20;9.02;;;13.30;99.90;;;;;;5030735;28;20104;-80
2022/08/30 04:57:33;;;;;;;11.38;8.13;;;13.30;99.90;;;;;;5030504;28;20443;-79
2022/08/30 04:59:59;;;;;;;11.43;9.10;;;13.30;99.90;;;;;;5030556;28;20025;-79
2022/08/30 05:02:25;;;;;;;11.95;8.55;;;13.30;99.90;;;;;;5030169;28;20084;-79
2022/08/30 05:07:35;;;;;;;14.60;10.55;;;13.40;99.90;;;;;;5030889;28;20032;-79
2022/08/30 05:10:01;;;;;;;17.85;10.15;;;13.40;99.90;;;;;;5031338;28;20029;-79
2022/08/30 05:12:28;;;;;;;12.77;10.40;;;13.40;99.90;;;;;;5031499;28;20036;-79
2022/08/30 05:14:56;;;;;;;12.75;10.25;;;13.50;99.90;;;;;;5030378;28;20030;-79
2022/08/30 05:17:21;;;;;;;12.15;9.63;;;13.50;99.90;;;;;;5030659;28;20039;-79
2022/08/30 05:19:47;;;;;;;12.00;9.98;;;13.50;99.90;;;;;;5030213;28;20467;-79
2022/08/30 05:22:13;;;;;;;13.82;9.77;;;13.60;99.90;;;;;;5039718;28;20013;-79
2022/08/30 05:24:38;;;;;;;13.30;10.18;;;13.60;99.90;;;;;;5051223;28;20203;-79
2022/08/30 05:27:04;;;;;;;13.88;9.93;;;13.70;99.90;;;;;;5050090;28;20048;-79
2022/08/30 05:29:30;;;;;;;11.80;10.60;;;13.70;99.90;;;;;;5050333;28;20052;-79
2022/08/30 05:31:56;;;;;;;12.60;10.48;;;13.80;99.90;;;;;;5050215;28;20036;-79
2022/08/30 05:34:22;;;;;;;16.95;10.68;;;13.90;99.90;;;;;;5049060;28;20021;-79
2022/08/30 05:36:47;;;;;;;14.38;10.05;;;14.00;99.90;;;;;;5049710;28;20459;-79
2022/08/30 05:39:13;;;;;;;11.32;9.50;;;14.00;99.90;;;;;;5050705;28;20452;-79
2022/08/30 05:41:38;;;;;;;11.50;10.15;;;14.10;99.90;;;;;;5050629;28;20471;-79
2022/08/30 05:44:06;;;;;;;11.43;9.80;;;14.20;99.90;;;;;;5050391;28;20474;-79
2022/08/30 05:46:33;;;;;;;11.85;9.73;;;14.20;99.90;;;;;;5050384;28;20029;-79
2022/08/30 05:49:03;;;;;;;13.88;9.45;;;14.30;99.90;;;;;;5043471;28;20371;-79
2022/08/30 05:51:32;;;;;;;15.02;9.38;;;14.40;99.90;;;;;;5042466;28;20435;-79
2022/08/30 05:53:58;;;;;;;15.25;9.80;;;14.50;99.90;;;;;;5036212;28;20426;-79
2022/08/30 05:56:29;;;;;;;11.70;10.38;;;14.60;99.90;;;;;;5048523;28;20382;-79
2022/08/30 05:58:55;;;;;;;11.55;9.63;;;14.70;99.90;;;;;;5048106;28;20509;-79
2022/08/30 06:01:23;;;;;;;16.38;10.70;;;14.80;99.90;;;;;;5050161;28;20017;-79
2022/08/30 06:03:50;;;;;;;12.57;10.52;;;14.90;99.90;;;;;;5034692;28;20025;-79
2022/08/30 06:06:15;;;;;;;11.98;10.23;;;15.00;99.90;;;;;;5037790;28;20017;-78
2022/08/30 06:08:44;;;;;;;12.40;9.60;;;15.10;99.90;;;;;;5050013;28;20363;-79
2022/08/30 06:11:11;;;;;;;11.35;8.88;;;15.20;99.90;;;;;;5044057;28;20467;-78
2022/08/30 06:13:37;;;;;;;16.92;10.10;;;15.40;99.90;;;;;;5042073;28;20055;-78
2022/08/30 06:16:03;;;;;;;13.13;10.65;;;15.50;99.90;;;;;;5031953;28;20026;-79
2022/08/30 06:18:29;;;;;;;14.23;10.77;;;15.60;99.90;;;;;;5039689;28;20539;-77
2022/08/30 06:20:54;;;;;;;12.63;10.25;;;15.70;99.90;;;;;;5050147;28;20024;-79
2022/08/30 06:23:20;;;;;;;12.75;10.07;;;15.80;99.90;;;;;;5035517;28;20033;-78
2022/08/30 06:25:45;;;;;;;18.80;10.38;;;15.90;99.90;;;;;;5049751;28;20471;-78
2022/08/30 06:28:12;;;;;;;12.70;9.73;;;16.00;99.90;;;;;;5033964;28;20029;-78
2022/08/30 06:30:40;;;;;;;10.45;9.35;;;16.10;99.90;;;;;;5049487;28;20111;-78
2022/08/30 06:33:05;;;;;;;10.82;9.43;;;16.20;99.90;;;;;;5049065;28;20545;-78
2022/08/30 06:35:31;;;;;;;11.90;9.75;;;16.40;99.90;;;;;;5035932;28;20109;-79
2022/08/30 06:37:57;;;;;;;12.68;9.55;;;16.50;99.90;;;;;;5049777;28;20033;-79
2022/08/30 06:40:23;;;;;;;12.18;9.93;;;16.60;99.90;;;;;;5034957;28;20399;-79
2022/08/30 06:42:50;;;;;;;10.38;9.27;;;16.70;99.90;;;;;;5049196;28;20025;-78
2022/08/30 06:45:16;;;;;;;10.80;9.52;;;16.80;99.90;;;;;;5049075;28;20470;-79
2022/08/30 06:47:42;;;;;;;13.25;9.85;;;16.90;99.90;;;;;;5049054;28;20028;-79
2022/08/30 06:50:09;;;;;;;11.68;9.63;;;17.00;99.90;;;;;;5048645;28;20028;-79
2022/08/30 06:52:34;;;;;;;11.15;9.98;;;17.10;99.90;;;;;;5029274;28;20517;-79
2022/08/30 06:55:00;;;;;;;12.30;9.73;;;17.20;99.90;;;;;;5041855;28;20037;-79
2022/08/30 06:57:26;;;;;;;11.13;9.40;;;17.20;99.90;;;;;;5048456;28;20486;-79
2022/08/30 06:59:55;;;;;;;12.18;9.88;;;17.30;99.90;;;;;;5048882;28;20033;-79
2022/08/30 07:02:21;;;;;;;12.30;8.65;;;17.40;99.90;;;;;;5030981;28;20036;-79
2022/08/30 07:04:47;;;;;;;15.98;8.80;;;17.50;99.90;;;;;;5038043;28;20025;-79
2022/08/30 07:07:13;;;;;;;14.13;9.25;;;17.60;99.90;;;;;;5048952;28;20409;-79
2022/08/30 07:09:43;;;;;;;11.32;9.10;;;17.70;99.90;;;;;;5048344;28;20076;-79
2022/08/30 07:12:10;;;;;;;14.38;9.48;;;17.80;99.90;;;;;;5035412;28;20051;-79
2022/08/30 07:14:36;;;;;;;14.38;9.43;;;17.80;99.90;;;;;;5015877;28;20040;-79
2022/08/30 07:18:49;;;;;;;13.23;9.27;;;18.00;99.90;;;;;;5028583;28;20026;-79
2022/08/30 07:19:48;;;;;;;11.90;9.02;;;18.00;99.90;;;;;;5031420;28;20048;-79
2022/08/30 07:22:14;;;;;;;14.10;9.57;;;18.20;99.90;;;;;;5047669;28;20449;-79
2022/08/30 07:24:40;;;;;;;11.75;8.15;;;18.20;99.90;;;;;;5034227;28;20053;-79
2022/08/30 07:27:05;;;;;;;11.43;8.93;;;18.30;99.90;;;;;;5041163;28;20113;-78
2022/08/30 07:29:31;;;;;;;9.93;8.75;;;18.40;99.90;;;;;;5042031;28;20104;-79
2022/08/30 07:31:56;;;;;;;13.13;9.48;;;18.50;99.90;;;;;;5043453;28;20037;-79
2022/08/30 07:34:22;;;;;;;13.43;9.02;;;18.60;99.90;;;;;;5039002;28;20029;-79
2022/08/30 07:36:47;;;;;;;19.95;8.85;;;18.70;99.90;;;;;;5031384;28;20526;-79
2022/08/30 07:39:13;;;;;;;17.08;8.75;;;18.80;99.90;;;;;;5028345;28;20493;-79
2022/08/30 07:41:39;;;;;;;16.95;8.98;;;19.00;99.90;;;;;;5042921;28;20104;-79
2022/08/30 07:44:06;;;;;;;15.32;8.57;;;19.10;99.90;;;;;;5048238;28;20421;-79
2022/08/30 07:46:32;;;;;;;13.13;9.43;;;19.20;99.90;;;;;;5048105;28;20417;-79
2022/08/30 07:48:59;;;;;;;14.75;9.18;;;19.30;99.90;;;;;;5048019;28;20025;-79
2022/08/30 07:51:26;;;;;;;10.23;8.40;;;19.30;99.90;;;;;;5048428;28;20029;-79
2022/08/30 07:53:53;;;;;;;12.13;8.82;;;19.40;99.90;;;;;;5048322;28;20023;-79
2022/08/30 07:56:19;;;;;;;10.38;9.10;;;19.50;99.90;;;;;;5038622;28;20482;-79
2022/08/30 07:58:45;;;;;;;16.85;9.35;;;19.60;99.90;;;;;;5042555;28;20470;-79
2022/08/30 08:01:12;;;;;;;13.75;9.38;;;19.70;99.90;;;;;;5048447;28;20057;-80
2022/08/30 08:03:39;;;;;;;17.30;11.05;;;19.70;99.90;;;;;;5049301;28;20148;-80
2022/08/30 08:06:06;;;;;;;15.10;9.70;;;19.80;99.90;;;;;;5041897;28;20518;-80
2022/08/30 08:08:33;;;;;;;15.52;9.68;;;19.80;99.90;;;;;;5040809;28;20075;-80
2022/08/30 08:11:06;;;;;;;14.43;8.85;;;19.90;99.90;;;;;;5048093;28;20028;-80
2022/08/30 08:13:33;;;;;;;15.52;8.35;;;20.00;99.90;;;;;;5048298;28;20059;-80
2022/08/30 08:15:58;;;;;;;15.35;7.82;;;20.10;99.90;;;;;;5047374;28;20021;-80
2022/08/30 08:18:24;;;;;;;11.75;8.43;;;20.20;99.90;;;;;;5038302;28;20025;-79
2022/08/30 08:20:50;;;;;;;10.88;8.23;;;20.30;99.90;;;;;;5027936;28;20022;-80
2022/08/30 08:23:15;;;;;;;13.60;8.82;;;20.40;99.90;;;;;;5045705;28;20025;-80
2022/08/30 08:25:41;;;;;;;13.25;8.55;;;20.60;99.90;;;;;;5047940;28;20066;-80
2022/08/30 08:28:07;;;;;;;9.02;7.85;;;20.70;99.90;;;;;;5045646;28;20079;-80
2022/08/30 08:30:34;;;;;;;12.80;8.23;;;20.80;99.90;;;;;;5035649;28;20052;-80
2022/08/30 08:33:00;;;;;;;11.30;8.05;;;21.00;99.90;;;;;;5034160;28;20517;-80
2022/08/30 08:35:26;;;;;;;8.77;7.03;;;21.00;99.90;;;;;;5051148;28;20061;-80
2022/08/30 08:37:52;;;;;;;12.02;8.18;;;21.10;99.90;;;;;;5051279;28;20079;-80
2022/08/30 08:40:19;;;;;;;11.07;7.57;;;21.20;99.90;;;;;;5038057;28;20021;-80
2022/08/30 08:43:09;;;;;;;10.48;7.88;;;21.20;99.90;;;;;;5041297;28;20375;-79
2022/08/30 08:45:44;;;;;;;9.15;6.60;;;21.40;99.90;;;;;;5050205;28;20021;-80
2022/08/30 08:48:18;;;;;;;;;;;21.50;99.90;;;;;;5051862;28;20025;-80
2022/08/30 08:53:33;;;;;;;11.35;7.25;;;21.50;99.90;;;;;;5051024;28;19909;-80
2022/08/30 08:53:34;;;;;;;11.32;7.50;;;21.60;99.90;;;;;;5051057;28;20029;-80
2022/08/30 08:56:06;;;;;;;14.25;7.38;;;21.90;99.90;;;;;;5050407;28;20147;-80
2022/08/30 08:58:39;;;;;;;10.90;7.13;;;22.00;99.90;;;;;;5051028;28;20025;-80
2022/08/30 09:01:06;;;;;;;11.88;7.10;;;22.00;99.90;;;;;;5051308;28;20025;-80
2022/08/30 09:03:32;;;;;;;8.80;6.68;;;22.10;99.90;;;;;;5050686;28;20127;-80
2022/08/30 09:06:01;;;;;;;9.18;7.60;;;22.30;99.90;;;;;;5031766;28;20108;-80
2022/08/30 09:08:26;;;;;;;10.25;7.20;;;22.40;99.90;;;;;;5042432;28;20029;-80
2022/08/30 09:10:59;;;;;;;10.43;7.20;;;22.60;99.90;;;;;;5050789;28;20071;-80
2022/08/30 09:13:25;;;;;;;9.93;7.45;;;22.70;99.90;;;;;;5040317;28;20037;-80
2022/08/30 09:15:54;;;;;;;10.88;6.97;;;22.90;99.90;;;;;;5044634;28;20486;-80
2022/08/30 09:18:38;;;;;;;10.30;7.20;;;23.10;99.90;;;;;;5030588;28;20072;-80
2022/08/30 09:21:06;;;;;;;10.40;6.95;;;23.20;99.90;;;;;;5044508;28;20120;-80
2022/08/30 09:23:31;;;;;;;10.77;6.80;;;23.40;99.90;;;;;;5036079;28;20058;-80
2022/08/30 09:26:04;;;;;;;10.93;6.40;;;23.70;99.90;;;;;;5037317;28;20018;-80
2022/08/30 09:28:42;;;;;;;8.30;6.68;;;23.90;99.90;;;;;;5036028;28;20100;-80
2022/08/30 09:31:19;;;;;;;13.05;6.43;;;24.10;99.90;;;;;;5050384;28;20361;-80
2022/08/30 09:34:04;;;;;;;12.63;6.35;;;24.50;99.90;;;;;;5050485;28;20104;-80
2022/08/30 09:36:42;;;;;;;;;;;24.70;99.90;;;;;;5035914;28;20037;-80
2022/08/30 09:39:25;;;;;;;9.20;5.07;;;24.70;99.90;;;;;;5038322;28;19932;-81
2022/08/30 09:41:51;;;;;;;8.20;5.70;;;24.80;99.90;;;;;;5050443;28;20025;-80
2022/08/30 09:44:26;;;;;;;9.93;6.20;;;25.00;99.90;;;;;;5049986;28;20074;-80
2022/08/30 09:46:58;;;;;;;6.28;4.82;;;25.20;99.90;;;;;;5050124;28;20025;-80
2022/08/30 09:49:29;;;;;;;10.30;5.10;;;25.30;99.90;;;;;;5050627;28;20394;-80
2022/08/30 09:52:33;;;;;;;8.23;5.10;;;25.50;99.90;;;;;;5049975;28;20025;-80
2022/08/30 09:55:36;;;;;;;9.95;5.07;;;25.60;99.90;;;;;;5050682;28;20033;-80
2022/08/30 09:58:04;;;;;;;7.25;4.75;;;25.70;99.90;;;;;;5029837;28;20041;-80
2022/08/30 10:00:39;;;;;;;8.00;5.20;;;25.60;99.90;;;;;;5047951;28;20029;-80
2022/08/30 10:03:27;;;;;;;6.68;4.32;;;25.80;99.90;;;;;;5039596;28;20029;-80
2022/08/30 10:06:05;;;;;;;10.27;4.82;;;25.80;99.90;;;;;;5050116;28;20028;-80
2022/08/30 10:08:52;;;;;;;7.80;4.30;;;25.90;99.90;;;;;;5049276;28;20039;-80
2022/08/30 10:11:33;;;;;;;8.10;4.22;;;26.10;99.90;;;;;;5017178;28;20025;-81
2022/08/30 10:14:17;;;;;;;8.43;4.13;;;26.20;99.90;;;;;;5043655;28;20425;-81
2022/08/30 10:17:02;;;;;;;7.50;4.72;;;26.20;99.90;;;;;;5039963;28;20025;-81
2022/08/30 10:20:06;;;;;;;6.15;4.35;;;26.30;99.90;;;;;;5030556;28;20038;-80
2022/08/30 10:22:49;;;;;;;8.07;4.75;;;26.40;99.90;;;;;;5038289;28;20036;-81
2022/08/30 10:25:26;;;;;;;5.38;4.00;;;26.60;99.90;;;;;;5029963;28;20029;-80
2022/08/30 10:28:13;;;;;;;7.25;3.83;;;26.60;99.90;;;;;;5043488;28;20083;-80
2022/08/30 10:30:44;;;;;;;6.00;3.78;;;26.70;99.90;;;;;;5049650;28;20021;-80
2022/08/30 10:33:22;;;;;;;6.32;4.30;;;26.90;99.90;;;;;;5049241;28;20045;-81
2022/08/30 10:35:53;;;;;;;5.55;3.42;;;27.00;99.90;;;;;;5040595;28;20098;-80
2022/08/30 10:38:26;;;;;;;6.20;4.38;;;27.20;99.90;;;;;;5044615;28;20025;-80
2022/08/30 10:41:23;;;;;;;5.65;4.20;;;27.10;99.90;;;;;;5049207;28;20036;-81
2022/08/30 10:44:01;;;;;;;7.03;3.78;;;27.40;99.90;;;;;;5035087;28;20059;-81
2022/08/30 10:46:41;;;;;;;6.25;3.80;;;27.40;99.90;;;;;;5036453;28;20029;-80
2022/08/30 10:49:13;;;;;;;7.32;4.30;;;27.50;99.90;;;;;;5014279;28;20477;-80
2022/08/30 10:51:51;;;;;;;5.93;3.80;;;27.40;99.90;;;;;;5042410;28;20055;-80
2022/08/30 10:54:32;;;;;;;4.10;3.50;;;27.50;99.90;;;;;;5023269;28;20048;-80
2022/08/30 10:56:59;;;;;;;7.55;4.25;;;27.50;99.90;;;;;;5047992;28;20082;-80
2022/08/30 10:59:25;;;;;;;5.95;3.78;;;27.60;99.90;;;;;;5049122;28;20025;-81
2022/08/30 11:02:01;;;;;;;9.23;4.30;;;27.60;99.90;;;;;;5048715;28;20021;-80
2022/08/30 11:04:32;;;;;;;5.03;3.75;;;27.60;99.90;;;;;;5042588;28;20025;-80
2022/08/30 11:07:04;;;;;;;5.57;3.83;;;27.60;99.90;;;;;;5042457;28;20406;-81
2022/08/30 11:09:38;;;;;;;8.20;3.90;;;27.70;99.90;;;;;;5049341;28;20112;-80
2022/08/30 11:12:38;;;;;;;5.72;3.80;;;27.80;99.90;;;;;;5035613;28;20029;-80
2022/08/30 11:15:18;;;;;;;7.75;3.40;;;27.70;99.90;;;;;;5019121;28;20486;-80
2022/08/30 11:17:51;;;;;;;5.40;4.00;;;27.80;99.90;;;;;;5046659;28;20021;-81
2022/08/30 11:20:35;;;;;;;6.43;4.22;;;27.90;99.90;;;;;;5023436;28;20021;-81
2022/08/30 11:23:18;;;;;;;5.70;3.58;;;27.90;99.90;;;;;;5035862;28;20033;-80
2022/08/30 11:26:00;;;;;;;4.63;3.70;;;28.20;99.90;;;;;;5039612;28;20032;-81
2022/08/30 11:28:34;;;;;;;4.75;3.72;;;28.30;99.90;;;;;;5043335;28;20021;-80
2022/08/30 11:31:10;;;;;;;7.55;4.20;;;28.40;99.90;;;;;;5040260;28;20033;-80
2022/08/30 11:33:41;;;;;;;6.10;3.92;;;28.50;99.90;;;;;;5049676;28;20021;-80
2022/08/30 11:36:08;;;;;;;11.85;4.03;;;28.50;99.90;;;;;;5049155;28;20035;-80
2022/08/30 11:38:33;;;;;;;5.05;3.53;;;28.50;99.90;;;;;;5048138;28;20060;-81
2022/08/30 11:41:05;;;;;;;5.05;3.65;;;28.50;99.90;;;;;;5039617;28;20115;-80
2022/08/30 11:43:34;;;;;;;7.00;4.05;;;28.70;99.90;;;;;;5044857;28;20029;-80
2022/08/30 11:46:18;;;;;;;7.03;3.65;;;28.90;99.90;;;;;;5048577;28;20167;-81
2022/08/30 11:48:50;;;;;;;3.47;3.13;;;29.00;99.90;;;;;;5034656;28;20029;-81
2022/08/30 11:51:53;;;;;;;5.35;3.65;;;29.10;99.90;;;;;;5048689;28;20067;-80
2022/08/30 11:54:39;;;;;;;6.68;3.90;;;29.10;99.90;;;;;;5048709;28;20540;-80
2022/08/30 11:57:31;;;;;;;4.82;3.60;;;29.10;99.90;;;;;;5048458;28;20052;-81
2022/08/30 12:00:24;;;;;;;5.97;3.67;;;29.10;99.90;;;;;;5049176;28;20036;-80
2022/08/30 12:03:26;;;;;;;5.15;3.50;;;29.20;99.90;;;;;;5023046;28;20025;-81
2022/08/30 12:05:59;;;;;;;4.85;3.63;;;29.60;99.20;;;;;;5034346;28;20033;-81
2022/08/30 12:08:33;;;;;;;6.45;3.88;;;29.60;98.50;;;;;;5039798;28;20029;-81
2022/08/30 12:10:59;;;;;;;;;;;29.60;98.80;;;;;;5051767;28;20102;-81
2022/08/30 12:13:33;;;;;;;7.40;4.30;;;29.60;98.80;;;;;;5042411;28;20358;-81
2022/08/30 12:16:06;;;;;;;6.85;4.10;;;29.80;99.90;;;;;;5050141;28;20104;-81
2022/08/30 12:18:44;;;;;;;6.32;3.72;;;30.00;99.90;;;;;;5052344;28;20025;-81
2022/08/30 12:21:18;;;;;;;4.45;3.70;;;30.40;99.20;;;;;;5037961;28;20028;-80
2022/08/30 12:24:03;;;;;;;5.22;3.80;;;30.30;99.70;;;;;;5039870;28;20029;-81
2022/08/30 12:26:38;;;;;;;6.50;4.07;;;30.30;99.00;;;;;;5052071;28;20028;-81
2022/08/30 12:29:17;;;;;;;5.50;3.83;;;30.40;96.80;;;;;;5052317;28;20382;-81
2022/08/30 12:31:47;;;;;;;5.55;4.10;;;30.20;97.60;;;;;;5038070;28;20021;-81
2022/08/30 12:34:26;;;;;;;4.75;3.63;;;30.40;97.10;;;;;;5052349;28;20039;-81
2022/08/30 12:37:03;;;;;;;5.20;3.65;;;30.50;96.90;;;;;;5052250;28;20040;-81
2022/08/30 12:39:32;;;;;;;6.03;4.30;;;30.40;96.50;;;;;;5051823;28;20036;-81
2022/08/30 12:42:18;;;;;;;5.05;4.38;;;30.30;96.30;;;;;;5048315;28;20032;-81
2022/08/30 12:44:45;;;;;;;6.10;4.35;;;30.00;96.30;;;;;;5031919;28;20140;-81
2022/08/30 12:47:12;;;;;;;4.25;3.85;;;30.00;97.30;;;;;;5036716;28;20025;-80
2022/08/30 12:49:39;;;;;;;7.65;4.20;;;30.10;96.50;;;;;;5041592;28;20032;-81
2022/08/30 12:52:16;;;;;;;5.82;3.90;;;30.10;96.20;;;;;;5035085;28;20112;-80